Data for 09/12/2008

Time Sea-Level Adjusted Pressure Absolute Pressure Temperature Relative Humidity Dew Point   
(mb) (inHg) (mb) (inHg) (C) (F) (%) (C) (F)
00:05 1019 30.09 849 25.07 7.7 45.8 74 3.3 37.9
00:10 1019 30.09 849 25.07 7.6 45.7 73 3.1 37.6
00:15 1019 30.09 848 25.04 7.7 45.8 73 3.1 37.6
00:20 1019 30.09 848 25.04 7.5 45.6 73 3 37.4
00:25 1019 30.09 848 25.04 7.6 45.6 71 2.7 36.8
00:30 1019 30.09 848 25.04 8.1 46.6 67 2.4 36.3
00:35 1019 30.09 848 25.04 8.4 47.1 68 2.8 37
00:40 1019 30.09 848 25.04 8.1 46.6 69 2.7 36.9
00:45 1019 30.09 848 25.04 8 46.3 67 2.3 36.2
00:50 1019 30.09 848 25.04 8.3 47 66 2.3 36.2
00:55 1019 30.09 848 25.04 8.2 46.7 68 2.6 36.6
01:00 1019 30.09 848 25.04 7.8 46.1 67 2.2 35.9
01:05 1019 30.09 848 25.04 8 46.4 66 2.1 35.8
01:10 1019 30.09 848 25.04 7.9 46.2 67 2.2 35.9
01:15 1019 30.09 848 25.04 7.7 45.9 68 2.1 35.9
01:20 1019 30.09 848 25.04 7.6 45.6 69 2.2 35.9
01:25 1019 30.09 848 25.04 7.6 45.6 68 2.1 35.8
01:30 1019 30.09 848 25.04 7.1 44.7 71 2.1 35.8
01:35 1019 30.09 848 25.04 7.5 45.4 67 1.6 35
01:40 1019 30.09 848 25.04 7.6 45.8 65 1.6 34.9
01:45 1019 30.09 848 25.04 7.9 46.1 65 1.8 35.2
01:50 1019 30.09 848 25.04 8 46.4 64 1.7 35
01:55 1019 30.09 848 25.04 8 46.5 64 1.6 34.9
02:00 1019 30.09 848 25.04 8.1 46.5 64 1.7 35
02:05 1019 30.09 848 25.04 7.8 46.1 65 1.7 35
02:10 1019 30.09 848 25.04 8 46.4 61 0.9 33.6
02:15 1019 30.09 848 25.04 7.6 45.8 62 0.9 33.6
02:20 1019 30.09 848 25.04 7.4 45.2 62 0.6 33.1
02:25 1019 30.09 848 25.04 7.3 45.1 61 0.4 32.7
02:30 1019 30.09 848 25.04 7.3 45.2 60 0.2 32.3
02:35 1019 30.09 848 25.04 7.5 45.4 62 0.7 33.2
02:40 1019 30.09 848 25.04 7.2 44.9 65 1 33.8
02:45 1019 30.09 848 25.04 6.7 44.1 67 1.1 33.9
02:50 1019 30.09 848 25.04 6.3 43.4 69 1 33.8
02:55 1019 30.09 848 25.04 6.3 43.4 69 1 33.8
03:00 1019 30.09 848 25.04 6.4 43.5 69 1.1 33.9
03:05 1019 30.09 848 25.04 6.3 43.4 70 1.3 34.3
03:10 1019 30.09 848 25.04 5.8 42.4 73 1.2 34.2
03:15 1019 30.09 848 25.04 5.2 41.4 74 1 33.9
03:20 1019 30.09 848 25.04 4.9 40.8 75 0.8 33.5
03:25 1019 30.09 848 25.04 4.9 40.8 74 0.6 33.2
03:30 1019 30.09 848 25.04 5 41 73 0.5 33
03:35 1019 30.09 848 25.04 5.3 41.6 72 0.6 33.1
03:40 1018 30.06 848 25.04 5.9 42.6 69 0.6 33
03:45 1018 30.06 848 25.04 6.4 43.5 68 0.9 33.7
03:50 1018 30.06 848 25.04 6 42.8 68 0.5 32.9
03:55 1018 30.06 848 25.04 6 42.8 68 0.6 33
04:00 1018 30.06 848 25.04 5.7 42.3 71 0.8 33.4
04:05 1018 30.06 848 25.04 5.3 41.6 71 0.5 32.8
04:10 1018 30.06 848 25.04 5.4 41.8 69 0.2 32.4
04:15 1018 30.06 848 25.04 5.6 42.2 68 0.1 32.2
04:20 1018 30.06 847 25.01 6 42.8 67 0.3 32.5
04:25 1018 30.06 847 25.01 6 42.8 66 0.2 32.4
04:30 1018 30.06 847 25.01 6.1 42.9 67 0.5 32.9
04:35 1018 30.06 847 25.01 6 42.7 68 0.4 32.8
04:40 1018 30.06 847 25.01 6 42.8 67 0.4 32.8
04:45 1018 30.06 847 25.01 5.9 42.6 69 0.7 33.2
04:50 1018 30.06 847 25.01 5.4 41.8 71 0.5 32.9
04:55 1018 30.06 847 25.01 5.1 41.2 70 0.2 32.3
05:00 1018 30.06 847 25.01 5.4 41.8 70 0.3 32.6
05:05 1018 30.06 847 25.01 5.5 41.8 67 -0.2 31.7
05:10 1018 30.06 847 25.01 6 42.8 66 0.1 32.2
05:15 1018 30.06 847 25.01 5.6 42 68 0.1 32.2
05:20 1018 30.06 847 25.01 5.2 41.4 70 0.1 32.3
05:25 1018 30.06 847 25.01 5.3 41.5 68 -0.2 31.7
05:30 1018 30.06 847 25.01 6 42.8 64 -0.2 31.6
05:35 1018 30.06 847 25.01 6.4 43.5 63 -0.1 31.9
05:40 1018 30.06 847 25.01 6.5 43.7 63 -0.1 31.9
05:45 1018 30.06 847 25.01 6.7 44 62 -0.2 31.7
05:50 1018 30.06 847 25.01 6.7 44.1 63 0.2 32.3
05:55 1018 30.06 847 25.01 6.1 43 66 0.3 32.5
06:00 1018 30.06 847 25.01 5.5 41.8 68 0 32.1
06:05 1018 30.06 847 25.01 5.1 41.2 69 -0.1 31.8
06:10 1018 30.06 847 25.01 5 41 69 -0.1 31.8
06:15 1018 30.06 847 25.01 5.2 41.4 67 -0.4 31.3
06:20 1018 30.06 847 25.01 5.4 41.7 67 -0.2 31.6
06:25 1018 30.06 847 25.01 5.2 41.4 70 0.2 32.4
06:30 1018 30.06 847 25.01 4.7 40.5 73 0.3 32.5
06:35 1018 30.06 847 25.01 4.4 39.9 76 0.5 32.9
06:40 1018 30.06 847 25.01 4.3 39.7 76 0.4 32.8
06:45 1018 30.06 847 25.01 4.5 40.1 74 0.2 32.4
06:50 1018 30.06 847 25.01 4.4 40 72 -0.1 31.9
06:55 1018 30.06 847 25.01 4.6 40.3 71 -0.1 31.8
07:00 1018 30.06 847 25.01 4.8 40.7 71 -0.1 31.9
07:05 1018 30.06 847 25.01 5 41 70 -0 31.9
07:10 1018 30.06 847 25.01 4.9 40.8 71 0.2 32.3
07:15 1018 30.06 847 25.01 4.6 40.3 73 0.2 32.4
07:20 1018 30.06 847 25.01 4.9 40.9 72 0.3 32.6
07:25 1018 30.06 847 25.01 5.2 41.3 72 0.5 32.9
07:30 1018 30.06 847 25.01 5.2 41.4 71 0.4 32.7
07:35 1018 30.06 847 25.01 5.4 41.8 70 0.4 32.8
07:40 1018 30.06 847 25.01 5.4 41.7 70 0.4 32.7
07:45 1018 30.06 847 25.01 5.6 42.1 70 0.6 33
07:50 1018 30.06 847 25.01 5.9 42.6 69 0.6 33.1
07:55 1018 30.06 847 25.01 6.3 43.3 68 0.8 33.4
08:00 1018 30.06 847 25.01 6.8 44.2 66 0.9 33.6
08:05 1018 30.06 847 25.01 6.9 44.4 66 1 33.8
08:10 1018 30.06 847 25.01 6.9 44.5 67 1.2 34.2
08:15 1018 30.06 847 25.01 6.8 44.2 67 1.2 34.1
08:20 1018 30.06 847 25.01 6.7 44.1 66 0.9 33.6
08:25 1018 30.06 847 25.01 7 44.6 64 0.6 33.1
08:30 1018 30.06 847 25.01 7.4 45.3 63 0.8 33.4
08:35 1018 30.06 847 25.01 8 46.3 59 0.4 32.7
08:40 1018 30.06 847 25.01 8.9 47.9 58 1 33.8
08:45 1018 30.06 847 25.01 10.1 50.1 51 0.5 32.9
08:50 1018 30.06 847 25.01 11 51.7 50 1.1 34
08:55 1018 30.06 847 25.01 11.5 52.7 48 1 33.8
09:00 1018 30.06 847 25.01 12.1 53.9 47 1.3 34.3
09:05 1018 30.06 847 25.01 11.6 52.8 51 1.9 35.4
09:10 1018 30.06 847 25.01 11.2 52.1 52 1.7 35
09:15 1018 30.06 847 25.01 11.8 53.2 49 1.4 34.6
09:20 1018 30.06 847 25.01 12.5 54.6 48 1.8 35.2
09:25 1018 30.06 847 25.01 12.9 55.1 46 1.7 35
09:30 1018 30.06 847 25.01 12.9 55.3 49 2.5 36.6
09:35 1018 30.06 847 25.01 12.9 55.3 46 1.7 35
09:40 1018 30.06 847 25.01 13 55.3 46 1.6 35
09:45 1018 30.06 847 25.01 13 55.4 47 2 35.6
09:50 1018 30.06 847 25.01 13.6 56.5 44 1.6 34.9
09:55 1018 30.06 847 25.01 13.8 56.8 43 1.4 34.5
10:00 1018 30.06 847 25.01 14.4 57.9 40 1.2 34.2
10:05 1018 30.06 847 25.01 14.9 58.8 38 1 33.7
10:10 1018 30.06 847 25.01 14.8 58.7 40 1.3 34.3
10:15 1018 30.06 847 25.01 14.7 58.5 41 1.6 34.9
10:20 1018 30.06 847 25.01 15.1 59.1 39 1.3 34.4
10:25 1018 30.06 847 25.01 15.8 60.4 38 1.5 34.6
10:30 1018 30.06 847 25.01 15.5 59.9 41 2.4 36.3
10:35 1018 30.06 847 25.01 15.6 60.1 39 1.8 35.2
10:40 1018 30.06 847 25.01 16.5 61.8 37 1.9 35.5
10:45 1018 30.06 847 25.01 16.8 62.2 36 1.9 35.3
10:50 1018 30.06 847 25.01 15.7 60.3 37 1 33.9
10:55 1017 30.03 847 25.01 16.1 61.1 37 1.6 34.9
11:00 1017 30.03 847 25.01 16.7 62.1 37 2.2 36
11:05 1017 30.03 847 25.01 16.9 62.5 37 2.2 36
11:10 1017 30.03 847 25.01 16.9 62.4 37 2.3 36.2
11:15 1017 30.03 847 25.01 17.2 63 35 1.7 35
11:20 1017 30.03 847 25.01 17.4 63.2 36 2.3 36.1
11:25 1017 30.03 847 25.01 16.7 62.1 39 2.9 37.3
11:30 1017 30.03 847 25.01 16.5 61.7 36 1.6 34.9
11:35 1017 30.03 847 25.01 17 62.6 37 2.3 36.1
11:40 1017 30.03 847 25.01 17.5 63.6 35 2.1 35.8
11:45 1017 30.03 847 25.01 17.1 62.7 36 2 35.6
11:50 1017 30.03 847 25.01 17.3 63.1 37 2.7 36.9
11:55 1017 30.03 846 24.98 17.3 63.1 37 2.7 36.9
12:00 1017 30.03 846 24.98 18 64.5 36 2.8 37
12:05 1017 30.03 846 24.98 17.9 64.2 39 3.9 39
12:10 1017 30.03 846 24.98 17.6 63.8 35 2.2 36
12:15 1017 30.03 846 24.98 18.1 64.5 33 1.9 35.4
12:20 1017 30.03 846 24.98 18.4 65.1 35 2.7 36.8
12:25 1017 30.03 846 24.98 18.5 65.3 31 1.1 34
12:30 1017 30.03 846 24.98 18.1 64.6 35 2.5 36.5
12:35 1017 30.03 846 24.98 18 64.4 32 1.2 34.2
12:40 1017 30.03 846 24.98 19.1 66.4 29 0.8 33.4
12:45 1017 30.03 846 24.98 19.7 67.4 27 0.4 32.8
12:50 1017 30.03 846 24.98 19.8 67.7 26 0.2 32.3
12:55 1017 30.03 846 24.98 19.6 67.3 27 0.5 32.9
13:00 1016 30 846 24.98 20.4 68.8 27 0.7 33.3
13:05 1016 30 846 24.98 20.2 68.3 28 1.1 33.9
13:10 1016 30 846 24.98 20.3 68.5 27 0.6 33.1
13:15 1016 30 846 24.98 20.5 68.9 26 0.8 33.4
13:20 1016 30 845 24.95 19.6 67.3 28 0.7 33.3
13:25 1016 30 845 24.95 20 68 26 -0.1 31.8
13:30 1016 30 845 24.95 19.6 67.2 25 -0.7 30.8
13:35 1016 30 845 24.95 20.5 69 25 0.2 32.4
13:40 1016 30 845 24.95 20.9 69.5 25 0.3 32.5
13:45 1016 30 845 24.95 21 69.9 26 0.7 33.3
13:50 1016 30 845 24.95 21.1 70 24 0 32
13:55 1016 30 845 24.95 21.4 70.4 24 0.3 32.5
14:00 1016 30 845 24.95 21.1 70 25 0.5 32.8
14:05 1016 30 845 24.95 21.5 70.6 26 1.1 34
14:10 1016 30 845 24.95 21.5 70.8 25 1.1 33.9
14:15 1016 30 845 24.95 21.7 71 25 0.8 33.4
14:20 1016 30 845 24.95 21.8 71.2 24 0.4 32.7
14:25 1016 30 845 24.95 21.8 71.3 24 0.5 33
14:30 1016 30 845 24.95 22.2 71.9 23 0.5 32.8
14:35 1015 29.97 845 24.95 22.5 72.5 22 0.1 32.2
14:40 1015 29.97 845 24.95 22.7 72.9 23 0.6 33.1
14:45 1015 29.97 845 24.95 22.1 71.8 24 0.9 33.6
14:50 1015 29.97 845 24.95 20.9 69.6 25 0.4 32.7
14:55 1015 29.97 844 24.92 21.3 70.4 25 0.4 32.8
15:00 1015 29.97 844 24.92 22 71.5 24 0.5 32.8
15:05 1015 29.97 844 24.92 22.1 71.8 24 0.7 33.2
15:10 1015 29.97 844 24.92 22.4 72.4 24 0.9 33.6
15:15 1015 29.97 844 24.92 22.5 72.5 23 0.6 33
15:20 1015 29.97 844 24.92 22.8 73 22 0.4 32.7
15:25 1015 29.97 844 24.92 22.7 72.8 23 0.8 33.4
15:30 1015 29.97 844 24.92 22.5 72.5 24 1 33.7
15:35 1015 29.97 844 24.92 22.7 72.9 23 1 33.8
15:40 1015 29.97 844 24.92 22.4 72.2 22 0.1 32.1
15:45 1015 29.97 844 24.92 23 73.3 22 0.1 32.3
15:50 1015 29.97 844 24.92 22.7 72.9 21 -0.5 31.1
15:55 1015 29.97 844 24.92 22.9 73.2 22 0.5 32.8
16:00 1015 29.97 844 24.92 22.8 73 22 0.4 32.8
16:05 1015 29.97 844 24.92 22.9 73.2 22 0.5 33
16:10 1015 29.97 844 24.92 22.7 72.8 23 0.5 33
16:15 1015 29.97 844 24.92 22.8 73.1 22 0.4 32.7
16:20 1015 29.97 844 24.92 22.9 73.2 23 0.7 33.2
16:25 1015 29.97 844 24.92 22.9 73.3 22 0.4 32.7
16:30 1015 29.97 844 24.92 23.2 73.7 22 0.5 32.9
16:35 1015 29.97 844 24.92 23.4 74.1 20 -0.6 30.9
16:40 1015 29.97 844 24.92 23 73.5 21 -0.2 31.7
16:45 1015 29.97 844 24.92 22.4 72.3 23 0.2 32.4
16:50 1015 29.97 844 24.92 23 73.3 21 -0.1 31.8
16:55 1015 29.97 844 24.92 23.1 73.7 22 0.5 33
17:00 1015 29.97 844 24.92 23.2 73.8 22 0.4 32.7
17:05 1015 29.97 844 24.92 23.4 74.2 22 0.9 33.5
17:10 1015 29.97 844 24.92 23.6 74.6 20 -0.5 31.2
17:15 1015 29.97 844 24.92 23.4 74 20 -0.4 31.3
17:20 1015 29.97 844 24.92 23.3 74 21 -0.3 31.5
17:25 1014 29.94 844 24.92 23.5 74.3 19 -1.1 29.9
17:30 1014 29.94 844 24.92 23.5 74.3 21 -0.2 31.6
17:35 1014 29.94 844 24.92 23.5 74.3 20 -0.3 31.4
17:40 1014 29.94 844 24.92 23.5 74.2 21 0.3 32.6
17:45 1014 29.94 844 24.92 23.4 74 21 -0.2 31.6
17:50 1014 29.94 844 24.92 23.2 73.8 20 -0.8 30.5
17:55 1014 29.94 844 24.92 23.5 74.3 20 -0.6 30.9
18:00 1014 29.94 843 24.89 23.6 74.5 21 0.1 32.3
18:05 1014 29.94 843 24.89 22.5 72.4 22 0.2 32.3
18:10 1014 29.94 843 24.89 21.9 71.4 23 -0.2 31.7
18:15 1014 29.94 843 24.89 21.7 71.1 23 -0.1 31.8
18:20 1014 29.94 843 24.89 21.5 70.6 25 0.6 33.1
18:25 1014 29.94 843 24.89 21.1 70 24 0 32
18:30 1014 29.94 843 24.89 21 69.8 25 0.4 32.8
18:35 1014 29.94 843 24.89 21.2 70.1 24 -0 32
18:40 1014 29.94 843 24.89 21.2 70.1 25 0.4 32.7
18:45 1014 29.94 843 24.89 21 69.7 26 1 33.8
18:50 1014 29.94 843 24.89 20.7 69.3 28 1.6 34.8
18:55 1014 29.94 843 24.89 20.5 68.9 27 1.2 34.2
19:00 1014 29.94 843 24.89 20.5 68.8 27 0.9 33.5
19:05 1014 29.94 843 24.89 20.5 68.8 29 1.9 35.4
19:10 1014 29.94 843 24.89 20.2 68.3 30 2.2 35.9
19:15 1014 29.94 843 24.89 19.9 67.7 32 3 37.4
19:20 1014 29.94 843 24.89 19.4 66.8 37 4.4 39.9
19:25 1014 29.94 843 24.89 18.6 65.4 39 4.6 40.3
19:30 1014 29.94 843 24.89 18 64.5 41 4.6 40.2
19:35 1014 29.94 843 24.89 17.8 64.1 41 4.7 40.4
19:40 1014 29.94 843 24.89 17.3 63.2 40 3.8 38.9
19:45 1014 29.94 843 24.89 16.7 62 41 3.5 38.3
19:50 1014 29.94 843 24.89 16.1 61 43 3.7 38.6
19:55 1014 29.94 843 24.89 15.7 60.3 46 4.1 39.4
20:00 1014 29.94 843 24.89 15.5 59.8 46 4.1 39.3
20:05 1014 29.94 843 24.89 15.3 59.5 46 3.8 38.8
20:10 1014 29.94 843 24.89 15.1 59.1 45 3.3 38
20:15 1014 29.94 843 24.89 14.6 58.3 49 4.1 39.3
20:20 1014 29.94 843 24.89 14.2 57.5 48 3.4 38.2
20:25 1014 29.94 843 24.89 14.1 57.4 47 3.1 37.7
20:30 1014 29.94 843 24.89 14 57.2 45 2.3 36.1
20:35 1014 29.94 843 24.89 14.1 57.3 48 3.3 37.9
20:40 1014 29.94 843 24.89 13.7 56.7 48 3.1 37.6
20:45 1014 29.94 843 24.89 13.6 56.5 46 2.4 36.3
20:50 1014 29.94 843 24.89 13.8 56.8 44 1.9 35.5
20:55 1014 29.94 843 24.89 13.8 56.9 46 2.4 36.4
21:00 1014 29.94 843 24.89 13.7 56.6 45 1.9 35.4
21:05 1014 29.94 844 24.92 13.6 56.5 46 2.1 35.9
21:10 1014 29.94 844 24.92 13.5 56.2 45 1.8 35.3
21:15 1014 29.94 844 24.92 13.5 56.3 45 1.8 35.3
21:20 1014 29.94 844 24.92 13.4 56 46 2 35.6
21:25 1014 29.94 844 24.92 13.1 55.5 46 1.8 35.2
21:30 1014 29.94 844 24.92 13 55.5 45 1.4 34.5
21:35 1015 29.97 844 24.92 13.2 55.7 44 1.4 34.5
21:40 1015 29.97 844 24.92 13.3 55.9 44 1.4 34.4
21:45 1015 29.97 844 24.92 13.3 55.9 43 1.2 34.2
21:50 1015 29.97 844 24.92 13.3 55.9 44 1.2 34.1
21:55 1015 29.97 844 24.92 13.3 55.9 43 1.1 33.9
22:00 1015 29.97 844 24.92 13.4 56.1 43 1.1 33.9
22:05 1015 29.97 844 24.92 13.5 56.3 42 0.8 33.4
22:10 1015 29.97 844 24.92 13.8 56.8 41 0.7 33.2
22:15 1015 29.97 844 24.92 13.9 56.9 40 0.5 32.9
22:20 1015 29.97 844 24.92 13.9 57 39 0.2 32.4
22:25 1015 29.97 844 24.92 13.8 56.8 40 0.6 33
22:30 1015 29.97 844 24.92 13.5 56.4 42 0.9 33.6
22:35 1015 29.97 844 24.92 13.5 56.2 41 0.5 32.8
22:40 1015 29.97 844 24.92 13.3 55.9 44 1.5 34.6
22:45 1015 29.97 844 24.92 13.2 55.8 42 0.8 33.4
22:50 1015 29.97 844 24.92 13.3 55.9 45 1.7 35.1
22:55 1015 29.97 844 24.92 12.8 55.1 44 1 33.8
23:00 1015 29.97 844 24.92 12.6 54.7 47 1.8 35.2
23:05 1015 29.97 844 24.92 12 53.5 52 2.3 36.2
23:10 1015 29.97 844 24.92 11.3 52.4 53 2.2 36
23:15 1015 29.97 844 24.92 11 51.7 53 1.9 35.4
23:20 1015 29.97 844 24.92 11 51.8 52 1.6 34.8
23:25 1015 29.97 844 24.92 11.4 52.4 51 1.6 34.9
23:30 1015 29.97 844 24.92 11.5 52.7 51 1.8 35.2
23:35 1015 29.97 844 24.92 11.3 52.4 52 1.9 35.4
23:40 1015 29.97 845 24.95 11.1 52.1 52 1.6 34.9
23:45 1015 29.97 845 24.95 11.2 52.2 52 1.8 35.3
23:50 1015 29.97 845 24.95 10.9 51.7 54 2 35.6
23:55 1015 29.97 845 24.95 10.7 51.2 55 1.9 35.5
24:00 1015 29.97 845 24.95 10.6 51 54 1.7 35